Pen Duick Vi — FHHH — position and weather

sailwx.info

Track history (hours):
 
Tides and Currents Weather Stations Pressure Air Temp Water Temp Dewpoint Dewpoint Depression Visibility Wind Speed Wind Dir Waves Ship Positions

Pen Duick Vi

Last reported at 2018-Jun-22 13:47 UTC. Time now 2018-Jun-23 06:25 UTC.
Position N 46°09' W 001°09'.

Length 23 m.

Type: Sailing vessel. MMSI: 227661000.

Date/timePositionNaut miles runAvg speedWind from/ knotsBaromVisibWave heightAir tempDewpointWater temp
2018-Jun-22 13:47N 46°09' W 001°09'0 0.5
2018-Jun-22 13:30N 46°09' W 001°09'1 1.4
2018-Jun-22 13:00N 46°09' W 001°10'2 4.6
2018-Jun-22 12:30N 46°07' W 001°10'1 2.8
2018-Jun-22 12:00N 46°08' W 001°11'2 4.3
2018-Jun-22 11:29N 46°05' W 001°11'1 1.2
2018-Jun-22 10:59N 46°05' W 001°11'4 7.9
2018-Jun-22 10:29N 46°09' W 001°11'1 3.0
2018-Jun-22 09:59N 46°09' W 001°09'0 0.0
2018-Jun-22 09:29N 46°09' W 001°09'0 0.0
2018-Jun-21 13:01N 46°09' W 001°09'0 0.0
2018-Jun-21 12:58N 46°09' W 001°09'0 0.3
2018-Jun-21 12:30N 46°09' W 001°09'2 3.1
2018-Jun-21 12:00N 46°09' W 001°11'2 4.6
2018-Jun-21 11:30N 46°06' W 001°12'4 7.5
2018-Jun-21 11:00N 46°06' W 001°17'4 8.7
2018-Jun-21 10:30N 46°05' W 001°12'3 5.5
2018-Jun-21 10:00N 46°08' W 001°12'1 1.1
2018-Jun-21 09:30N 46°08' W 001°12'2 4.5
2018-Jun-21 08:59N 46°09' W 001°09'0 0.0
2018-Jun-21 08:29N 46°09' W 001°09'0 0.0
2018-Jun-20 11:19N 46°09' W 001°09'0 0.6
2018-Jun-20 11:00N 46°09' W 001°09'1 2.8
2018-Jun-20 10:30N 46°09' W 001°11'1 2.7
2018-Jun-20 10:00N 46°07' W 001°11'2 3.5
2018-Jun-20 09:30N 46°06' W 001°11'0 0.9
2018-Jun-20 09:00N 46°06' W 001°11'2 4.4
2018-Jun-20 08:28N 46°08' W 001°11'2 3.4
2018-Jun-20 08:00N 46°09' W 001°09'0 0.6
2018-Jun-20 07:30N 46°09' W 001°09'0 0.0
2018-Jun-20 07:00N 46°09' W 001°09'0 0.0
2018-Jun-19 19:40N 46°09' W 001°09'0 0.0
2018-Jun-19 19:26N 46°09' W 001°09'1 1.9
2018-Jun-19 19:00N 46°09' W 001°10'0 0.2
2018-Jun-19 18:25N 46°09' W 001°10'0 0.0
2018-Jun-19 17:58N 46°09' W 001°10'0 0.1
2018-Jun-19 17:30N 46°09' W 001°10'1 2.7
2018-Jun-19 17:00N 46°08' W 001°12'4 8.2
2018-Jun-19 16:30N 46°07' W 001°18'4 8.4
2018-Jun-19 16:00N 46°07' W 001°23'510.7
2018-Jun-19 15:30N 46°02' W 001°28'27 4.4
2018-Jun-19 09:20N 45°39' W 001°08'2 5.7
2018-Jun-19 08:59N 45°38' W 001°06'3 5.6
2018-Jun-19 08:30N 45°37' W 001°02'1 0.0
2018-Jun-18 17:33N 45°37' W 001°02'0 0.0
2018-Jun-18 17:29N 45°37' W 001°02'1 2.3
2018-Jun-18 17:00N 45°36' W 001°01'2 4.8
2018-Jun-18 16:30N 45°34' W 001°01'1 2.7
2018-Jun-18 16:00N 45°34' W 000°59'1 2.2
2018-Jun-18 15:29N 45°33' W 000°58'2 3.2
2018-Jun-18 15:00N 45°31' W 000°58'  
2018-Jun-13 10:54N 45°28' W 000°55'2 5.7
2018-Jun-13 10:29N 45°29' W 000°57'3 5.5
2018-Jun-13 09:59N 45°31' W 000°59'3 5.2
2018-Jun-13 09:29N 45°34' W 000°60'2 4.8
2018-Jun-13 08:59N 45°36' W 001°01'0 0.7
2018-Jun-13 08:25N 45°37' W 001°02'0 0.0
2018-Jun-13 07:58N 45°37' W 001°02'0 0.0
2018-Jun-13 07:28N 45°37' W 001°02'0 0.0
2018-Jun-13 06:58N 45°37' W 001°02'0 0.0
2018-Jun-13 06:25N 45°37' W 001°02'0 0.0
2018-Jun-13 05:58N 45°37' W 001°02'0 0.0
2018-Jun-13 05:28N 45°37' W 001°02'0 1.0
2018-Jun-13 05:00N 45°37' W 001°01'0 0.0
2018-Jun-12 14:42N 45°37' W 001°02'1 2.0
2018-Jun-12 14:26N 45°37' W 001°02'  
Track history (hours):
 
Tides and Currents Weather Stations Pressure Air Temp Water Temp Dewpoint Dewpoint Depression Visibility Wind Speed Wind Dir Waves Ship Positions

Pen Duick Vi

Last reported at 2018-Jun-22 13:47 UTC. Time now 2018-Jun-23 06:25 UTC.
Position N 46°09' W 001°09'.

Length 23 m.

Type: Sailing vessel. MMSI: 227661000.

Date/timePositionNaut miles runAvg speedWind from/ knotsBaromVisibWave heightAir tempDewpointWater temp
2018-Jun-22 13:47N 46°09' W 001°09'0 0.5
2018-Jun-22 13:30N 46°09' W 001°09'1 1.4
2018-Jun-22 13:00N 46°09' W 001°10'2 4.6
2018-Jun-22 12:30N 46°07' W 001°10'1 2.8
2018-Jun-22 12:00N 46°08' W 001°11'2 4.3
2018-Jun-22 11:29N 46°05' W 001°11'1 1.2
2018-Jun-22 10:59N 46°05' W 001°11'4 7.9
2018-Jun-22 10:29N 46°09' W 001°11'1 3.0
2018-Jun-22 09:59N 46°09' W 001°09'0 0.0
2018-Jun-22 09:29N 46°09' W 001°09'0 0.0
2018-Jun-21 13:01N 46°09' W 001°09'0 0.0
2018-Jun-21 12:58N 46°09' W 001°09'0 0.3
2018-Jun-21 12:30N 46°09' W 001°09'2 3.1
2018-Jun-21 12:00N 46°09' W 001°11'2 4.6
2018-Jun-21 11:30N 46°06' W 001°12'4 7.5
2018-Jun-21 11:00N 46°06' W 001°17'4 8.7
2018-Jun-21 10:30N 46°05' W 001°12'3 5.5
2018-Jun-21 10:00N 46°08' W 001°12'1 1.1
2018-Jun-21 09:30N 46°08' W 001°12'2 4.5
2018-Jun-21 08:59N 46°09' W 001°09'0 0.0
2018-Jun-21 08:29N 46°09' W 001°09'0 0.0
2018-Jun-20 11:19N 46°09' W 001°09'0 0.6
2018-Jun-20 11:00N 46°09' W 001°09'1 2.8
2018-Jun-20 10:30N 46°09' W 001°11'1 2.7
2018-Jun-20 10:00N 46°07' W 001°11'2 3.5
2018-Jun-20 09:30N 46°06' W 001°11'0 0.9
2018-Jun-20 09:00N 46°06' W 001°11'2 4.4
2018-Jun-20 08:28N 46°08' W 001°11'2 3.4
2018-Jun-20 08:00N 46°09' W 001°09'0 0.6
2018-Jun-20 07:30N 46°09' W 001°09'0 0.0
2018-Jun-20 07:00N 46°09' W 001°09'0 0.0
2018-Jun-19 19:40N 46°09' W 001°09'0 0.0
2018-Jun-19 19:26N 46°09' W 001°09'1 1.9
2018-Jun-19 19:00N 46°09' W 001°10'0 0.2
2018-Jun-19 18:25N 46°09' W 001°10'0 0.0
2018-Jun-19 17:58N 46°09' W 001°10'0 0.1
2018-Jun-19 17:30N 46°09' W 001°10'1 2.7
2018-Jun-19 17:00N 46°08' W 001°12'4 8.2
2018-Jun-19 16:30N 46°07' W 001°18'4 8.4
2018-Jun-19 16:00N 46°07' W 001°23'510.7
2018-Jun-19 15:30N 46°02' W 001°28'27 4.4
2018-Jun-19 09:20N 45°39' W 001°08'2 5.7
2018-Jun-19 08:59N 45°38' W 001°06'3 5.6
2018-Jun-19 08:30N 45°37' W 001°02'1 0.0
2018-Jun-18 17:33N 45°37' W 001°02'0 0.0
2018-Jun-18 17:29N 45°37' W 001°02'1 2.3
2018-Jun-18 17:00N 45°36' W 001°01'2 4.8
2018-Jun-18 16:30N 45°34' W 001°01'1 2.7
2018-Jun-18 16:00N 45°34' W 000°59'1 2.2
2018-Jun-18 15:29N 45°33' W 000°58'2 3.2
2018-Jun-18 15:00N 45°31' W 000°58'  
2018-Jun-13 10:54N 45°28' W 000°55'2 5.7
2018-Jun-13 10:29N 45°29' W 000°57'3 5.5
2018-Jun-13 09:59N 45°31' W 000°59'3 5.2
2018-Jun-13 09:29N 45°34' W 000°60'2 4.8
2018-Jun-13 08:59N 45°36' W 001°01'0 0.7
2018-Jun-13 08:25N 45°37' W 001°02'0 0.0
2018-Jun-13 07:58N 45°37' W 001°02'0 0.0
2018-Jun-13 07:28N 45°37' W 001°02'0 0.0
2018-Jun-13 06:58N 45°37' W 001°02'0 0.0
2018-Jun-13 06:25N 45°37' W 001°02'0 0.0
2018-Jun-13 05:58N 45°37' W 001°02'0 0.0
2018-Jun-13 05:28N 45°37' W 001°02'0 1.0
2018-Jun-13 05:00N 45°37' W 001°01'0 0.0
2018-Jun-12 14:42N 45°37' W 001°02'1 2.0
2018-Jun-12 14:26N 45°37' W 001°02'  

Dump ship's entire track history